createdAt,value
2019-03-13T00:01:49.902Z,59.80
2019-03-13T00:05:55.449Z,60.10
2019-03-13T00:10:00.013Z,59.10
2019-03-13T00:14:05.618Z,59.10
2019-03-13T00:18:10.501Z,59.00
2019-03-13T00:22:18.556Z,58.90
2019-03-13T00:26:23.464Z,59.20
2019-03-13T00:30:28.686Z,58.80
2019-03-13T00:34:33.262Z,58.10
2019-03-13T00:38:37.965Z,57.90
2019-03-13T00:42:42.554Z,57.80
2019-03-13T00:46:47.850Z,57.00
2019-03-13T00:50:52.435Z,56.40
2019-03-13T00:54:56.995Z,55.90
2019-03-13T00:59:02.103Z,56.20
2019-03-13T01:03:10.498Z,56.30
2019-03-13T01:07:15.551Z,55.80
2019-03-13T01:11:20.186Z,55.70
2019-03-13T01:15:25.986Z,55.90
2019-03-13T01:19:30.578Z,55.40
2019-03-13T01:23:35.142Z,55.80
2019-03-13T01:27:39.730Z,56.40
2019-03-13T01:32:18.916Z,56.80
2019-03-13T01:36:23.541Z,57.50
2019-03-13T01:40:28.173Z,58.40
2019-03-13T01:44:33.422Z,65.60
2019-03-13T01:48:38.317Z,65.40
2019-03-13T01:52:43.256Z,75.30
2019-03-13T01:56:47.860Z,81.20
2019-03-13T02:00:52.993Z,84.50
2019-03-13T02:04:57.740Z,85.30
2019-03-13T02:09:04.832Z,87.90
2019-03-13T02:13:11.552Z,89.40
2019-03-13T02:17:16.758Z,90.40
2019-03-13T02:21:21.429Z,91.70
2019-03-13T02:25:26.468Z,91.80
2019-03-13T02:29:31.077Z,92.50
2019-03-13T02:33:35.935Z,93.00
2019-03-13T02:37:40.529Z,93.20
2019-03-13T02:41:45.411Z,93.20
2019-03-13T02:45:50.010Z,94.60
2019-03-13T02:49:54.612Z,94.80
2019-03-13T02:53:59.232Z,95.50
2019-03-13T02:58:05.201Z,94.90
2019-03-13T03:02:18.473Z,95.10
2019-03-13T03:06:23.411Z,95.10
2019-03-13T03:10:27.958Z,95.10
2019-03-13T03:14:32.978Z,94.90
2019-03-13T03:18:37.564Z,94.60
2019-03-13T03:22:42.474Z,94.30
2019-03-13T03:26:47.240Z,93.90
2019-03-13T03:30:52.151Z,93.70
2019-03-13T03:34:57.601Z,93.00
2019-03-13T03:39:02.548Z,92.60
2019-03-13T03:43:09.155Z,92.20
2019-03-13T03:47:14.178Z,91.90
2019-03-13T03:51:20.300Z,92.20
2019-03-13T03:55:24.868Z,92.50
2019-03-13T03:59:29.412Z,92.50
2019-03-13T04:03:34.468Z,92.60
2019-03-13T04:07:39.292Z,92.90
2019-03-13T04:11:45.652Z,92.20
2019-03-13T04:15:51.469Z,92.90
2019-03-13T04:19:56.287Z,92.30
2019-03-13T04:24:01.228Z,92.00
2019-03-13T04:28:07.238Z,92.00
2019-03-13T04:32:11.843Z,91.90
2019-03-13T04:36:16.770Z,90.50
2019-03-13T04:40:21.715Z,89.70
2019-03-13T04:44:26.299Z,89.50
2019-03-13T04:48:31.011Z,90.70
2019-03-13T04:52:36.008Z,90.70
2019-03-13T04:56:40.596Z,90.80
2019-03-13T05:00:45.735Z,90.10
2019-03-13T05:04:50.883Z,89.40
2019-03-13T05:09:05.824Z,87.20
2019-03-13T05:13:11.348Z,86.40
2019-03-13T05:17:16.274Z,85.40
2019-03-13T05:21:20.867Z,87.10
2019-03-13T05:25:25.543Z,87.70
2019-03-13T05:29:30.145Z,86.90
2019-03-13T05:33:34.823Z,87.80
2019-03-13T05:37:39.434Z,86.90
2019-03-13T05:41:44.277Z,86.50
2019-03-13T05:45:49.143Z,86.20
2019-03-13T05:49:53.763Z,86.20
2019-03-13T05:53:58.631Z,86.10
2019-03-13T05:58:03.232Z,86.40
2019-03-13T06:02:07.829Z,86.50
2019-03-13T06:06:12.417Z,87.10
2019-03-13T06:10:17.364Z,87.40
2019-03-13T06:14:21.944Z,86.80
2019-03-13T06:18:27.235Z,86.90
2019-03-13T06:22:32.102Z,85.70
2019-03-13T06:26:38.099Z,85.50
2019-03-13T06:30:42.705Z,85.20
2019-03-13T06:34:47.970Z,84.60
2019-03-13T06:38:52.836Z,84.60
2019-03-13T06:42:57.760Z,84.70
2019-03-13T06:47:02.344Z,84.10
2019-03-13T06:51:06.937Z,83.90
2019-03-13T06:55:12.433Z,83.60
2019-03-13T06:59:39.002Z,83.70
2019-03-13T07:04:01.540Z,83.40
2019-03-13T07:08:25.262Z,83.20
2019-03-13T07:12:48.039Z,83.20
2019-03-13T07:17:17.726Z,83.00
2019-03-13T07:21:39.075Z,83.80
2019-03-13T07:25:59.079Z,82.40
2019-03-13T07:30:26.657Z,81.40
2019-03-13T07:34:38.464Z,80.60
2019-03-13T07:38:55.558Z,79.80
2019-03-13T07:43:24.281Z,78.60
2019-03-13T07:47:40.103Z,78.40
2019-03-13T07:52:08.215Z,77.70
2019-03-13T07:56:33.405Z,77.40
2019-03-13T08:00:52.915Z,75.70
2019-03-13T08:05:21.986Z,74.90
2019-03-13T08:09:51.765Z,74.80
2019-03-13T08:14:12.130Z,74.20
2019-03-13T08:18:24.444Z,75.90
2019-03-13T08:22:49.777Z,75.40
2019-03-13T08:26:59.413Z,74.50
2019-03-13T08:31:12.537Z,72.50
2019-03-13T08:35:35.765Z,66.70
2019-03-13T08:39:59.617Z,59.80
2019-03-13T08:44:13.227Z,58.80
2019-03-13T08:48:37.839Z,57.50
2019-03-13T08:53:08.743Z,59.10
2019-03-13T08:57:48.563Z,61.90
2019-03-13T09:02:21.415Z,60.20
2019-03-13T09:06:51.184Z,54.00
2019-03-13T09:11:13.623Z,50.20
2019-03-13T09:15:40.304Z,49.90
2019-03-13T09:20:03.587Z,49.10
2019-03-13T09:24:26.145Z,48.40
2019-03-13T09:28:51.643Z,51.50
2019-03-13T09:33:10.744Z,50.40
2019-03-13T09:37:30.778Z,50.00
2019-03-13T09:42:02.932Z,48.10
2019-03-13T09:46:19.056Z,49.20
2019-03-13T09:50:35.746Z,49.60
2019-03-13T09:54:59.960Z,49.60
2019-03-13T09:59:22.701Z,52.30
2019-03-13T10:03:42.484Z,54.90
2019-03-13T10:07:55.407Z,57.20
2019-03-13T10:12:15.126Z,57.20
2019-03-13T10:16:33.231Z,58.60
2019-03-13T10:20:58.039Z,59.30
2019-03-13T10:25:14.201Z,58.00
2019-03-13T10:29:33.951Z,53.10
2019-03-13T10:33:49.507Z,51.20
2019-03-13T10:38:15.001Z,50.60
2019-03-13T10:42:50.349Z,49.80
2019-03-13T10:47:01.514Z,51.30
2019-03-13T10:51:25.536Z,53.10
2019-03-13T10:55:48.488Z,49.20
2019-03-13T11:00:24.904Z,48.60
2019-03-13T11:04:51.661Z,45.60
2019-03-13T11:09:14.783Z,39.30
2019-03-13T11:13:37.777Z,40.30
2019-03-13T11:18:11.701Z,38.40
2019-03-13T11:22:23.672Z,38.70
2019-03-13T11:26:56.500Z,37.10
2019-03-13T11:31:19.135Z,33.30
2019-03-13T11:35:45.001Z,36.20
2019-03-13T11:40:15.897Z,42.30
2019-03-13T11:44:37.347Z,45.60
2019-03-13T11:49:13.570Z,48.20
2019-03-13T11:53:40.332Z,47.70
2019-03-13T11:58:05.086Z,49.60
2019-03-13T12:02:22.462Z,52.20
2019-03-13T12:06:38.943Z,53.20
2019-03-13T12:10:58.775Z,52.90
2019-03-13T12:15:17.475Z,54.40
2019-03-13T12:19:41.555Z,54.70
2019-03-13T12:23:55.378Z,54.00
2019-03-13T12:28:14.516Z,55.10
2019-03-13T12:32:41.407Z,54.70
2019-03-13T12:37:12.529Z,54.90
2019-03-13T12:41:54.762Z,55.20
2019-03-13T12:46:16.783Z,56.20
2019-03-13T12:50:34.281Z,55.30
2019-03-13T12:55:16.819Z,55.10
2019-03-13T12:59:39.584Z,55.90
2019-03-13T13:03:55.007Z,55.00
2019-03-13T13:08:19.010Z,56.40
2019-03-13T13:12:37.045Z,56.50
2019-03-13T13:16:59.652Z,57.10
2019-03-13T13:21:04.478Z,57.10
2019-03-13T13:25:09.636Z,56.90
2019-03-13T13:29:14.452Z,56.90
2019-03-13T13:33:19.320Z,57.10
2019-03-13T13:37:24.427Z,57.10
2019-03-13T13:41:29.618Z,57.50
2019-03-13T13:45:40.132Z,58.20
2019-03-13T13:49:44.713Z,57.90
2019-03-13T13:53:49.295Z,57.60
2019-03-13T13:57:54.176Z,57.60
2019-03-13T14:01:59.001Z,57.10
2019-03-13T14:06:03.604Z,56.60
2019-03-13T14:10:08.514Z,57.10
2019-03-13T14:14:13.755Z,55.80
2019-03-13T14:18:18.644Z,55.80
2019-03-13T14:22:23.240Z,56.30
2019-03-13T14:26:27.975Z,57.00
2019-03-13T14:30:32.961Z,58.00
2019-03-13T14:34:37.657Z,58.60
2019-03-13T14:38:42.746Z,58.60
2019-03-13T14:42:47.695Z,58.80
2019-03-13T14:46:52.723Z,58.70
2019-03-13T14:50:57.299Z,58.50
2019-03-13T14:55:02.618Z,58.00
2019-03-13T14:59:07.252Z,58.10
2019-03-13T15:03:11.916Z,58.40
2019-03-13T15:07:16.814Z,59.00
2019-03-13T15:11:21.754Z,59.60
2019-03-13T15:15:26.688Z,59.30
2019-03-13T15:19:31.498Z,58.70
2019-03-13T15:23:36.142Z,59.00
2019-03-13T15:27:40.857Z,59.70
2019-03-13T15:31:45.513Z,61.10
2019-03-13T15:35:50.729Z,60.00
2019-03-13T15:39:55.438Z,60.40
2019-03-13T15:44:00.077Z,60.00
2019-03-13T15:48:05.532Z,60.80
2019-03-13T15:52:10.139Z,59.70
2019-03-13T15:56:14.722Z,59.10
2019-03-13T16:00:21.051Z,61.10
2019-03-13T16:04:25.809Z,60.40
2019-03-13T16:08:33.365Z,59.70
2019-03-13T16:12:39.612Z,59.80
2019-03-13T16:16:44.553Z,60.60
2019-03-13T16:20:49.597Z,61.20
2019-03-13T16:24:54.936Z,60.90
2019-03-13T16:29:00.263Z,61.50
2019-03-13T16:33:05.599Z,60.70
2019-03-13T16:37:10.880Z,60.90
2019-03-13T16:41:16.036Z,61.80
2019-03-13T16:45:20.889Z,61.60
2019-03-13T16:49:25.908Z,62.50
2019-03-13T16:53:30.476Z,62.90
2019-03-13T16:57:35.134Z,62.30
2019-03-13T17:01:40.424Z,62.50
2019-03-13T17:05:45.357Z,62.20
2019-03-13T17:09:49.998Z,63.30
2019-03-13T17:13:55.252Z,64.30
2019-03-13T17:18:00.729Z,64.30
2019-03-13T17:22:08.059Z,64.30
2019-03-13T17:26:14.943Z,65.20
2019-03-13T17:30:21.305Z,65.60
2019-03-13T17:34:26.308Z,66.00
2019-03-13T17:38:31.330Z,65.80
2019-03-13T17:42:40.245Z,65.50
2019-03-13T17:46:45.574Z,64.90
2019-03-13T17:50:50.295Z,66.70
2019-03-13T17:54:54.879Z,67.50
2019-03-13T17:58:59.477Z,67.50
2019-03-13T18:03:04.541Z,68.30
2019-03-13T18:07:09.819Z,68.40
2019-03-13T18:11:14.492Z,67.60
2019-03-13T18:15:19.387Z,67.70
2019-03-13T18:19:24.523Z,68.60
2019-03-13T18:23:29.201Z,69.40
2019-03-13T18:27:33.950Z,69.30
2019-03-13T18:31:38.825Z,69.60
2019-03-13T18:35:45.424Z,70.20
2019-03-13T18:39:50.461Z,71.50
2019-03-13T18:43:56.525Z,74.90
2019-03-13T18:48:01.618Z,78.80
2019-03-13T18:52:06.732Z,81.80
2019-03-13T18:56:12.019Z,84.60
2019-03-13T19:00:22.695Z,86.80
2019-03-13T19:04:27.891Z,88.30
2019-03-13T19:08:35.144Z,89.80
2019-03-13T19:12:40.042Z,90.80
2019-03-13T19:16:44.713Z,91.50
2019-03-13T19:20:49.967Z,91.80
2019-03-13T19:24:54.935Z,91.70
2019-03-13T19:29:01.494Z,92.10
2019-03-13T19:33:08.134Z,92.10
2019-03-13T19:37:17.284Z,92.10
2019-03-13T19:41:22.502Z,91.90
2019-03-13T19:45:30.673Z,91.80
2019-03-13T19:49:36.287Z,91.80
2019-03-13T19:53:42.180Z,91.60
2019-03-13T19:57:48.487Z,91.50
2019-03-13T20:01:53.587Z,91.50
2019-03-13T20:05:58.414Z,90.90
2019-03-13T20:10:03.239Z,90.20
2019-03-13T20:14:09.280Z,90.00
2019-03-13T20:18:14.249Z,88.80
2019-03-13T20:22:19.137Z,89.30
2019-03-13T20:26:24.485Z,87.90
2019-03-13T20:30:29.776Z,87.30
2019-03-13T20:34:35.521Z,87.20
2019-03-13T20:38:40.927Z,87.30
2019-03-13T20:42:46.237Z,87.10
2019-03-13T20:46:50.892Z,86.80
2019-03-13T20:50:56.020Z,86.90
2019-03-13T20:55:00.823Z,87.80
2019-03-13T20:59:06.564Z,88.10
2019-03-13T21:03:11.624Z,87.60
2019-03-13T21:07:16.287Z,88.20
2019-03-13T21:11:22.135Z,89.00
2019-03-13T21:15:26.831Z,89.70
2019-03-13T21:19:31.668Z,89.50
2019-03-13T21:23:36.419Z,90.00
2019-03-13T21:27:41.107Z,89.60
2019-03-13T21:31:46.163Z,89.20
2019-03-13T21:35:51.199Z,90.70
2019-03-13T21:39:57.499Z,91.70
2019-03-13T21:44:03.036Z,92.70
2019-03-13T21:48:07.809Z,94.00
2019-03-13T21:52:12.901Z,95.00
2019-03-13T21:56:17.556Z,96.00
2019-03-13T22:00:23.144Z,96.20
2019-03-13T22:04:27.940Z,96.50
2019-03-13T22:08:32.898Z,96.10
2019-03-13T22:12:37.797Z,96.70
2019-03-13T22:16:42.462Z,97.20
2019-03-13T22:20:47.556Z,97.00
2019-03-13T22:24:52.525Z,97.10
2019-03-13T22:28:57.095Z,97.40
2019-03-13T22:33:01.806Z,98.10
2019-03-13T22:37:06.455Z,98.60
2019-03-13T22:41:11.305Z,99.10
2019-03-13T22:45:16.391Z,99.50
2019-03-13T22:49:21.239Z,99.00
2019-03-13T22:53:25.834Z,99.10
2019-03-13T22:57:30.623Z,99.10
2019-03-13T23:01:36.731Z,98.80
2019-03-13T23:05:41.667Z,98.90
2019-03-13T23:09:46.243Z,99.00
2019-03-13T23:13:50.900Z,98.60
2019-03-13T23:17:55.504Z,99.20
2019-03-13T23:22:00.743Z,99.00
2019-03-13T23:26:05.641Z,99.00
2019-03-13T23:30:12.381Z,99.00
2019-03-13T23:34:17.223Z,98.80
2019-03-13T23:38:21.797Z,98.60
2019-03-13T23:42:26.991Z,98.80
2019-03-13T23:46:31.961Z,99.00
2019-03-13T23:50:36.588Z,98.80
2019-03-13T23:54:41.175Z,99.10
2019-03-13T23:58:45.771Z,99.00
